sensor_id;sensor_type;location;lat;lon;timestamp;pressure;altitude;pressure_sealevel;temperature;humidity
61697;BME280;47610;52.252;20.922;2023-09-30T00:04:44;100402.32;;;18.21;100.00
61697;BME280;47610;52.252;20.922;2023-09-30T00:09:47;100392.23;;;18.14;100.00
61697;BME280;47610;52.252;20.922;2023-09-30T00:14:50;100396.12;;;18.13;100.00
61697;BME280;47610;52.252;20.922;2023-09-30T00:19:53;100390.06;;;18.04;100.00
61697;BME280;47610;52.252;20.922;2023-09-30T00:24:57;100385.81;;;18.01;100.00
61697;BME280;47610;52.252;20.922;2023-09-30T00:30:00;100390.80;;;18.10;100.00
61697;BME280;47610;52.252;20.922;2023-09-30T00:35:04;100385.24;;;18.15;100.00
61697;BME280;47610;52.252;20.922;2023-09-30T00:40:09;100382.88;;;18.10;100.00
61697;BME280;47610;52.252;20.922;2023-09-30T00:45:13;100383.95;;;18.04;100.00
61697;BME280;47610;52.252;20.922;2023-09-30T00:50:16;100389.98;;;18.09;100.00
61697;BME280;47610;52.252;20.922;2023-09-30T00:55:22;100379.20;;;18.13;100.00
61697;BME280;47610;52.252;20.922;2023-09-30T01:00:26;100378.13;;;18.14;100.00
61697;BME280;47610;52.252;20.922;2023-09-30T01:05:29;100384.74;;;18.19;100.00
61697;BME280;47610;52.252;20.922;2023-09-30T01:10:32;100385.67;;;18.22;100.00
61697;BME280;47610;52.252;20.922;2023-09-30T01:15:35;100396.75;;;18.24;100.00
61697;BME280;47610;52.252;20.922;2023-09-30T01:20:38;100393.47;;;18.29;100.00
61697;BME280;47610;52.252;20.922;2023-09-30T01:25:42;100386.16;;;18.33;100.00
61697;BME280;47610;52.252;20.922;2023-09-30T01:30:45;100384.48;;;18.37;100.00
61697;BME280;47610;52.252;20.922;2023-09-30T01:35:48;100377.67;;;18.37;100.00
61697;BME280;47610;52.252;20.922;2023-09-30T01:40:51;100375.88;;;18.41;100.00
61697;BME280;47610;52.252;20.922;2023-09-30T01:45:54;100367.24;;;18.42;100.00
61697;BME280;47610;52.252;20.922;2023-09-30T01:50:57;100358.01;;;18.40;100.00
61697;BME280;47610;52.252;20.922;2023-09-30T01:56:00;100364.58;;;18.38;100.00
61697;BME280;47610;52.252;20.922;2023-09-30T02:01:04;100366.65;;;18.40;100.00
61697;BME280;47610;52.252;20.922;2023-09-30T02:06:07;100361.04;;;18.39;100.00
61697;BME280;47610;52.252;20.922;2023-09-30T02:11:10;100364.66;;;18.36;100.00
61697;BME280;47610;52.252;20.922;2023-09-30T02:16:14;100356.11;;;18.30;100.00
61697;BME280;47610;52.252;20.922;2023-09-30T02:21:17;100354.39;;;18.31;100.00
61697;BME280;47610;52.252;20.922;2023-09-30T02:26:20;100357.64;;;18.29;100.00
61697;BME280;47610;52.252;20.922;2023-09-30T02:31:24;100359.41;;;18.28;100.00
61697;BME280;47610;52.252;20.922;2023-09-30T02:36:27;100353.91;;;18.20;100.00
61697;BME280;47610;52.252;20.922;2023-09-30T02:41:30;100360.49;;;18.22;100.00
61697;BME280;47610;52.252;20.922;2023-09-30T02:46:33;100352.70;;;18.18;100.00
61697;BME280;47610;52.252;20.922;2023-09-30T02:51:36;100355.83;;;18.23;100.00
61697;BME280;47610;52.252;20.922;2023-09-30T02:56:39;100356.04;;;18.23;100.00
61697;BME280;47610;52.252;20.922;2023-09-30T03:01:42;100356.23;;;18.24;100.00
61697;BME280;47610;52.252;20.922;2023-09-30T03:06:45;100356.54;;;18.26;100.00
61697;BME280;47610;52.252;20.922;2023-09-30T03:11:48;100351.25;;;18.27;100.00
61697;BME280;47610;52.252;20.922;2023-09-30T03:16:52;100347.52;;;18.27;100.00
61697;BME280;47610;52.252;20.922;2023-09-30T03:21:55;100347.38;;;18.28;100.00
61697;BME280;47610;52.252;20.922;2023-09-30T03:26:58;100346.48;;;18.29;100.00
61697;BME280;47610;52.252;20.922;2023-09-30T03:32:01;100347.88;;;18.28;100.00
61697;BME280;47610;52.252;20.922;2023-09-30T03:37:04;100339.80;;;18.26;100.00
61697;BME280;47610;52.252;20.922;2023-09-30T03:42:07;100338.67;;;18.21;100.00
61697;BME280;47610;52.252;20.922;2023-09-30T03:47:10;100336.77;;;18.20;100.00
61697;BME280;47610;52.252;20.922;2023-09-30T03:52:14;100333.83;;;18.16;100.00
61697;BME280;47610;52.252;20.922;2023-09-30T03:57:17;100337.62;;;18.11;100.00
61697;BME280;47610;52.252;20.922;2023-09-30T04:02:20;100341.39;;;18.10;100.00
61697;BME280;47610;52.252;20.922;2023-09-30T04:07:23;100340.73;;;18.08;100.00
61697;BME280;47610;52.252;20.922;2023-09-30T04:12:26;100339.61;;;18.04;100.00
61697;BME280;47610;52.252;20.922;2023-09-30T04:17:29;100337.48;;;18.06;100.00
61697;BME280;47610;52.252;20.922;2023-09-30T04:22:32;100339.61;;;18.04;100.00
61697;BME280;47610;52.252;20.922;2023-09-30T04:27:35;100332.80;;;18.02;100.00
61697;BME280;47610;52.252;20.922;2023-09-30T04:32:39;100338.79;;;18.07;100.00
61697;BME280;47610;52.252;20.922;2023-09-30T04:37:42;100335.22;;;18.07;100.00
61697;BME280;47610;52.252;20.922;2023-09-30T04:42:45;100330.34;;;18.12;100.00
61697;BME280;47610;52.252;20.922;2023-09-30T04:47:48;100331.23;;;18.15;100.00
61697;BME280;47610;52.252;20.922;2023-09-30T04:52:51;100332.09;;;18.18;100.00
61697;BME280;47610;52.252;20.922;2023-09-30T04:57:54;100337.16;;;18.20;100.00
61697;BME280;47610;52.252;20.922;2023-09-30T05:02:57;100331.82;;;18.21;100.00
61697;BME280;47610;52.252;20.922;2023-09-30T05:08:01;100332.48;;;18.23;100.00
61697;BME280;47610;52.252;20.922;2023-09-30T05:13:04;100333.42;;;18.25;100.00
61697;BME280;47610;52.252;20.922;2023-09-30T05:18:07;100340.44;;;18.27;100.00
61697;BME280;47610;52.252;20.922;2023-09-30T05:23:10;100342.23;;;18.30;100.00
61697;BME280;47610;52.252;20.922;2023-09-30T05:28:14;100350.04;;;18.35;100.00
61697;BME280;47610;52.252;20.922;2023-09-30T05:33:17;100353.18;;;18.43;100.00
61697;BME280;47610;52.252;20.922;2023-09-30T05:38:20;100355.67;;;18.43;100.00
61697;BME280;47610;52.252;20.922;2023-09-30T05:43:23;100359.66;;;18.42;100.00
61697;BME280;47610;52.252;20.922;2023-09-30T05:48:26;100366.82;;;18.38;100.00
61697;BME280;47610;52.252;20.922;2023-09-30T05:53:30;100375.21;;;18.42;100.00
61697;BME280;47610;52.252;20.922;2023-09-30T05:58:33;100385.53;;;18.47;100.00
61697;BME280;47610;52.252;20.922;2023-09-30T06:03:36;100391.47;;;18.48;100.00
61697;BME280;47610;52.252;20.922;2023-09-30T06:08:40;100394.83;;;18.50;100.00
61697;BME280;47610;52.252;20.922;2023-09-30T06:13:43;100399.12;;;18.52;100.00
61697;BME280;47610;52.252;20.922;2023-09-30T06:18:46;100411.44;;;18.51;100.00
61697;BME280;47610;52.252;20.922;2023-09-30T06:23:49;100411.02;;;18.47;100.00
61697;BME280;47610;52.252;20.922;2023-09-30T06:28:52;100414.92;;;18.45;100.00
61697;BME280;47610;52.252;20.922;2023-09-30T06:33:56;100409.84;;;18.42;100.00
61697;BME280;47610;52.252;20.922;2023-09-30T06:38:59;100416.39;;;18.38;100.00
61697;BME280;47610;52.252;20.922;2023-09-30T06:44:02;100418.46;;;18.32;100.00
61697;BME280;47610;52.252;20.922;2023-09-30T06:49:05;100423.83;;;18.26;100.00
61697;BME280;47610;52.252;20.922;2023-09-30T06:54:08;100431.14;;;18.22;100.00
61697;BME280;47610;52.252;20.922;2023-09-30T06:59:11;100434.02;;;18.19;100.00
61697;BME280;47610;52.252;20.922;2023-09-30T07:04:15;100440.87;;;18.18;100.00
61697;BME280;47610;52.252;20.922;2023-09-30T07:09:18;100445.22;;;18.19;100.00
61697;BME280;47610;52.252;20.922;2023-09-30T07:14:21;100445.80;;;18.16;100.00
61697;BME280;47610;52.252;20.922;2023-09-30T07:19:24;100456.13;;;18.14;100.00
61697;BME280;47610;52.252;20.922;2023-09-30T07:24:27;100457.73;;;18.14;100.00
61697;BME280;47610;52.252;20.922;2023-09-30T07:29:30;100457.80;;;18.16;100.00
61697;BME280;47610;52.252;20.922;2023-09-30T07:34:33;100465.98;;;18.17;100.00
61697;BME280;47610;52.252;20.922;2023-09-30T07:39:36;100463.69;;;18.19;100.00
61697;BME280;47610;52.252;20.922;2023-09-30T07:44:39;100462.89;;;18.19;100.00
61697;BME280;47610;52.252;20.922;2023-09-30T07:49:43;100467.83;;;18.31;100.00
61697;BME280;47610;52.252;20.922;2023-09-30T07:54:46;100465.47;;;18.36;100.00
61697;BME280;47610;52.252;20.922;2023-09-30T07:59:49;100462.98;;;18.43;100.00
61697;BME280;47610;52.252;20.922;2023-09-30T08:04:52;100468.17;;;18.54;100.00
61697;BME280;47610;52.252;20.922;2023-09-30T08:09:55;100473.29;;;18.66;100.00
61697;BME280;47610;52.252;20.922;2023-09-30T08:14:58;100473.70;;;18.75;100.00
61697;BME280;47610;52.252;20.922;2023-09-30T08:20:01;100474.84;;;18.80;100.00
61697;BME280;47610;52.252;20.922;2023-09-30T08:25:07;100478.43;;;18.85;100.00
61697;BME280;47610;52.252;20.922;2023-09-30T08:30:11;100480.51;;;18.87;100.00
61697;BME280;47610;52.252;20.922;2023-09-30T08:35:14;100480.27;;;18.89;100.00
61697;BME280;47610;52.252;20.922;2023-09-30T08:40:21;100481.45;;;18.94;100.00
61697;BME280;47610;52.252;20.922;2023-09-30T08:45:24;100485.28;;;18.98;100.00
61697;BME280;47610;52.252;20.922;2023-09-30T08:50:31;100486.24;;;18.98;100.00
61697;BME280;47610;52.252;20.922;2023-09-30T08:55:35;100487.48;;;19.02;100.00
61697;BME280;47610;52.252;20.922;2023-09-30T09:00:38;100493.62;;;19.02;100.00
61697;BME280;47610;52.252;20.922;2023-09-30T09:05:42;100503.11;;;19.01;100.00
61697;BME280;47610;52.252;20.922;2023-09-30T09:10:57;100507.14;;;18.97;100.00
61697;BME280;47610;52.252;20.922;2023-09-30T09:16:08;100519.68;;;18.92;100.00
61697;BME280;47610;52.252;20.922;2023-09-30T09:21:13;100519.65;;;18.87;100.00
61697;BME280;47610;52.252;20.922;2023-09-30T09:26:25;100518.14;;;18.84;100.00
61697;BME280;47610;52.252;20.922;2023-09-30T09:31:30;100518.43;;;18.80;100.00
61697;BME280;47610;52.252;20.922;2023-09-30T09:36:44;100516.92;;;18.79;100.00
61697;BME280;47610;52.252;20.922;2023-09-30T09:41:53;100522.23;;;18.79;100.00
61697;BME280;47610;52.252;20.922;2023-09-30T09:46:58;100530.91;;;18.81;100.00
61697;BME280;47610;52.252;20.922;2023-09-30T09:52:06;100539.89;;;18.86;100.00
61697;BME280;47610;52.252;20.922;2023-09-30T09:57:11;100545.17;;;18.85;100.00
61697;BME280;47610;52.252;20.922;2023-09-30T10:02:15;100546.94;;;18.82;100.00
61697;BME280;47610;52.252;20.922;2023-09-30T10:07:22;100555.45;;;18.79;100.00
61697;BME280;47610;52.252;20.922;2023-09-30T10:12:26;100558.07;;;18.78;100.00
61697;BME280;47610;52.252;20.922;2023-09-30T10:23:22;100573.13;;;18.71;100.00
61697;BME280;47610;52.252;20.922;2023-09-30T10:28:47;100579.22;;;18.69;100.00
61697;BME280;47610;52.252;20.922;2023-09-30T10:39:06;100607.01;;;18.57;100.00
61697;BME280;47610;52.252;20.922;2023-09-30T10:44:35;100617.36;;;18.52;100.00
61697;BME280;47610;52.252;20.922;2023-09-30T10:49:38;100632.34;;;18.47;100.00
61697;BME280;47610;52.252;20.922;2023-09-30T10:54:42;100635.95;;;18.41;100.00
61697;BME280;47610;52.252;20.922;2023-09-30T10:59:45;100642.88;;;18.41;100.00
61697;BME280;47610;52.252;20.922;2023-09-30T11:04:48;100652.34;;;18.41;100.00
61697;BME280;47610;52.252;20.922;2023-09-30T11:09:53;100663.83;;;18.37;100.00
61697;BME280;47610;52.252;20.922;2023-09-30T11:15:02;100670.55;;;18.30;100.00
61697;BME280;47610;52.252;20.922;2023-09-30T11:20:07;100679.59;;;18.21;100.00
61697;BME280;47610;52.252;20.922;2023-09-30T11:25:17;100681.79;;;18.14;100.00
61697;BME280;47610;52.252;20.922;2023-09-30T11:30:20;100687.75;;;18.14;100.00
61697;BME280;47610;52.252;20.922;2023-09-30T11:35:24;100681.60;;;18.17;100.00
61697;BME280;47610;52.252;20.922;2023-09-30T11:40:28;100677.26;;;18.33;100.00
61697;BME280;47610;52.252;20.922;2023-09-30T11:45:31;100680.40;;;18.55;100.00
61697;BME280;47610;52.252;20.922;2023-09-30T11:50:48;100682.27;;;18.60;100.00
61697;BME280;47610;52.252;20.922;2023-09-30T11:55:51;100684.75;;;18.54;100.00
61697;BME280;47610;52.252;20.922;2023-09-30T12:00:57;100680.73;;;18.57;100.00
61697;BME280;47610;52.252;20.922;2023-09-30T12:06:00;100665.22;;;18.65;100.00
61697;BME280;47610;52.252;20.922;2023-09-30T12:11:03;100667.27;;;18.87;100.00
61697;BME280;47610;52.252;20.922;2023-09-30T12:16:07;100670.33;;;19.02;100.00
61697;BME280;47610;52.252;20.922;2023-09-30T12:21:10;100675.10;;;19.18;100.00
61697;BME280;47610;52.252;20.922;2023-09-30T12:26:14;100675.71;;;19.37;100.00
61697;BME280;47610;52.252;20.922;2023-09-30T12:31:17;100673.59;;;19.43;100.00
61697;BME280;47610;52.252;20.922;2023-09-30T12:36:20;100678.23;;;19.44;100.00
61697;BME280;47610;52.252;20.922;2023-09-30T12:41:24;100679.16;;;19.50;100.00
61697;BME280;47610;52.252;20.922;2023-09-30T12:46:27;100671.52;;;19.52;100.00
61697;BME280;47610;52.252;20.922;2023-09-30T12:51:30;100671.73;;;19.55;100.00
61697;BME280;47610;52.252;20.922;2023-09-30T12:56:34;100669.48;;;19.53;100.00
61697;BME280;47610;52.252;20.922;2023-09-30T13:01:37;100669.38;;;19.49;100.00
61697;BME280;47610;52.252;20.922;2023-09-30T13:06:40;100674.80;;;19.45;100.00
61697;BME280;47610;52.252;20.922;2023-09-30T13:11:43;100675.95;;;19.46;100.00
61697;BME280;47610;52.252;20.922;2023-09-30T13:16:47;100671.41;;;19.53;100.00
61697;BME280;47610;52.252;20.922;2023-09-30T13:21:50;100671.05;;;19.59;100.00
61697;BME280;47610;52.252;20.922;2023-09-30T13:26:53;100661.75;;;19.58;100.00
61697;BME280;47610;52.252;20.922;2023-09-30T13:31:56;100658.89;;;19.52;100.00
61697;BME280;47610;52.252;20.922;2023-09-30T13:36:59;100657.85;;;19.46;100.00
61697;BME280;47610;52.252;20.922;2023-09-30T13:42:02;100664.15;;;19.51;100.00
61697;BME280;47610;52.252;20.922;2023-09-30T13:47:06;100662.96;;;19.57;100.00
61697;BME280;47610;52.252;20.922;2023-09-30T13:52:09;100662.98;;;19.61;100.00
61697;BME280;47610;52.252;20.922;2023-09-30T13:57:12;100671.44;;;19.64;100.00
61697;BME280;47610;52.252;20.922;2023-09-30T14:02:15;100672.80;;;19.66;100.00
61697;BME280;47610;52.252;20.922;2023-09-30T14:07:18;100674.63;;;19.63;100.00
61697;BME280;47610;52.252;20.922;2023-09-30T14:12:21;100675.13;;;19.56;99.94
61697;BME280;47610;52.252;20.922;2023-09-30T14:17:24;100677.85;;;19.53;99.92
61697;BME280;47610;52.252;20.922;2023-09-30T14:22:27;100678.44;;;19.52;98.16
61697;BME280;47610;52.252;20.922;2023-09-30T14:27:31;100675.19;;;19.52;97.62
61697;BME280;47610;52.252;20.922;2023-09-30T14:32:34;100678.34;;;19.49;96.57
61697;BME280;47610;52.252;20.922;2023-09-30T14:37:37;100680.17;;;19.39;94.98
61697;BME280;47610;52.252;20.922;2023-09-30T14:42:40;100689.14;;;19.29;93.93
61697;BME280;47610;52.252;20.922;2023-09-30T14:47:43;100690.70;;;19.19;93.29
61697;BME280;47610;52.252;20.922;2023-09-30T14:52:47;100693.94;;;19.15;92.90
61697;BME280;47610;52.252;20.922;2023-09-30T14:57:50;100698.77;;;19.10;91.88
61697;BME280;47610;52.252;20.922;2023-09-30T15:02:53;100703.02;;;19.03;91.44
61697;BME280;47610;52.252;20.922;2023-09-30T15:07:56;100709.83;;;18.99;91.69
61697;BME280;47610;52.252;20.922;2023-09-30T15:12:59;100711.44;;;18.94;91.89
61697;BME280;47610;52.252;20.922;2023-09-30T15:18:02;100715.80;;;18.92;92.53
61697;BME280;47610;52.252;20.922;2023-09-30T15:23:06;100719.56;;;18.88;92.79
61697;BME280;47610;52.252;20.922;2023-09-30T15:28:09;100722.14;;;18.86;93.67
61697;BME280;47610;52.252;20.922;2023-09-30T15:33:12;100719.98;;;18.81;93.84
61697;BME280;47610;52.252;20.922;2023-09-30T15:38:15;100729.05;;;18.84;94.58
61697;BME280;47610;52.252;20.922;2023-09-30T15:43:18;100731.61;;;18.84;94.99
61697;BME280;47610;52.252;20.922;2023-09-30T15:48:21;100733.90;;;18.80;94.84
61697;BME280;47610;52.252;20.922;2023-09-30T15:53:24;100738.51;;;18.73;94.54
61697;BME280;47610;52.252;20.922;2023-09-30T15:58:28;100747.31;;;18.70;95.32
61697;BME280;47610;52.252;20.922;2023-09-30T16:03:31;100748.30;;;18.63;94.98
61697;BME280;47610;52.252;20.922;2023-09-30T16:08:34;100755.80;;;18.57;95.85
61697;BME280;47610;52.252;20.922;2023-09-30T16:13:37;100764.79;;;18.51;96.22
61697;BME280;47610;52.252;20.922;2023-09-30T16:18:40;100771.14;;;18.43;96.78
61697;BME280;47610;52.252;20.922;2023-09-30T16:23:43;100766.59;;;18.33;98.07
61697;BME280;47610;52.252;20.922;2023-09-30T16:28:46;100787.01;;;18.35;98.97
61697;BME280;47610;52.252;20.922;2023-09-30T16:33:49;100787.27;;;18.22;99.83
61697;BME280;47610;52.252;20.922;2023-09-30T16:38:53;100791.55;;;18.14;100.00
61697;BME280;47610;52.252;20.922;2023-09-30T16:43:56;100793.02;;;18.01;100.00
61697;BME280;47610;52.252;20.922;2023-09-30T16:48:59;100793.42;;;17.90;100.00
61697;BME280;47610;52.252;20.922;2023-09-30T16:54:02;100796.02;;;17.81;100.00
61697;BME280;47610;52.252;20.922;2023-09-30T16:59:05;100807.11;;;17.72;100.00
61697;BME280;47610;52.252;20.922;2023-09-30T17:04:08;100818.70;;;17.65;100.00
61697;BME280;47610;52.252;20.922;2023-09-30T17:09:11;100812.80;;;17.52;100.00
61697;BME280;47610;52.252;20.922;2023-09-30T17:14:14;100820.04;;;17.49;100.00
61697;BME280;47610;52.252;20.922;2023-09-30T17:19:18;100825.61;;;17.45;100.00
61697;BME280;47610;52.252;20.922;2023-09-30T17:24:21;100832.33;;;17.39;100.00
61697;BME280;47610;52.252;20.922;2023-09-30T17:29:24;100830.93;;;17.36;100.00
61697;BME280;47610;52.252;20.922;2023-09-30T17:34:27;100830.71;;;17.37;100.00
61697;BME280;47610;52.252;20.922;2023-09-30T17:39:30;100827.34;;;17.30;100.00
61697;BME280;47610;52.252;20.922;2023-09-30T17:44:33;100839.15;;;17.27;100.00
61697;BME280;47610;52.252;20.922;2023-09-30T17:49:37;100846.17;;;17.18;100.00
61697;BME280;47610;52.252;20.922;2023-09-30T17:54:40;100848.90;;;17.06;100.00
61697;BME280;47610;52.252;20.922;2023-09-30T17:59:43;100850.95;;;16.95;100.00
61697;BME280;47610;52.252;20.922;2023-09-30T18:04:46;100856.36;;;16.91;100.00
61697;BME280;47610;52.252;20.922;2023-09-30T18:09:49;100858.90;;;16.89;100.00
61697;BME280;47610;52.252;20.922;2023-09-30T18:14:52;100864.92;;;16.88;100.00
61697;BME280;47610;52.252;20.922;2023-09-30T18:19:55;100859.13;;;16.83;100.00
61697;BME280;47610;52.252;20.922;2023-09-30T18:24:58;100858.05;;;16.78;100.00
61697;BME280;47610;52.252;20.922;2023-09-30T18:30:03;100856.70;;;16.74;100.00
61697;BME280;47610;52.252;20.922;2023-09-30T18:35:08;100854.70;;;16.70;100.00
61697;BME280;47610;52.252;20.922;2023-09-30T18:40:12;100857.34;;;16.67;100.00
61697;BME280;47610;52.252;20.922;2023-09-30T18:45:15;100859.79;;;16.63;100.00
61697;BME280;47610;52.252;20.922;2023-09-30T18:50:18;100853.29;;;16.60;100.00
61697;BME280;47610;52.252;20.922;2023-09-30T18:55:22;100853.73;;;16.57;100.00
61697;BME280;47610;52.252;20.922;2023-09-30T19:00:26;100854.66;;;16.51;100.00
61697;BME280;47610;52.252;20.922;2023-09-30T19:05:28;100859.81;;;16.45;100.00
61697;BME280;47610;52.252;20.922;2023-09-30T19:10:31;100859.80;;;16.38;100.00
61697;BME280;47610;52.252;20.922;2023-09-30T19:15:35;100862.89;;;16.31;100.00
61697;BME280;47610;52.252;20.922;2023-09-30T19:20:42;100858.77;;;16.25;100.00
61697;BME280;47610;52.252;20.922;2023-09-30T19:25:45;100868.18;;;16.19;100.00
61697;BME280;47610;52.252;20.922;2023-09-30T19:30:48;100868.89;;;16.12;100.00
61697;BME280;47610;52.252;20.922;2023-09-30T19:35:51;100882.14;;;16.07;100.00
61697;BME280;47610;52.252;20.922;2023-09-30T19:40:54;100876.40;;;16.01;100.00
61697;BME280;47610;52.252;20.922;2023-09-30T19:46:01;100882.05;;;15.98;100.00
61697;BME280;47610;52.252;20.922;2023-09-30T19:51:04;100889.96;;;15.96;100.00
61697;BME280;47610;52.252;20.922;2023-09-30T19:56:07;100893.36;;;15.91;100.00
61697;BME280;47610;52.252;20.922;2023-09-30T20:01:11;100902.63;;;15.83;100.00
61697;BME280;47610;52.252;20.922;2023-09-30T20:06:21;100909.11;;;15.75;100.00
61697;BME280;47610;52.252;20.922;2023-09-30T20:11:25;100909.86;;;15.68;100.00
61697;BME280;47610;52.252;20.922;2023-09-30T20:16:28;100911.26;;;15.61;100.00
61697;BME280;47610;52.252;20.922;2023-09-30T20:21:32;100914.44;;;15.52;100.00
61697;BME280;47610;52.252;20.922;2023-09-30T20:26:35;100911.52;;;15.44;100.00
61697;BME280;47610;52.252;20.922;2023-09-30T20:31:39;100902.21;;;15.34;100.00
61697;BME280;47610;52.252;20.922;2023-09-30T20:36:42;100906.83;;;15.27;100.00
61697;BME280;47610;52.252;20.922;2023-09-30T20:41:45;100912.81;;;15.23;100.00
61697;BME280;47610;52.252;20.922;2023-09-30T20:46:48;100911.12;;;15.16;100.00
61697;BME280;47610;52.252;20.922;2023-09-30T20:51:51;100921.55;;;15.10;100.00
61697;BME280;47610;52.252;20.922;2023-09-30T20:56:54;100922.83;;;15.04;100.00
61697;BME280;47610;52.252;20.922;2023-09-30T21:01:57;100926.05;;;14.96;100.00
61697;BME280;47610;52.252;20.922;2023-09-30T21:07:00;100933.84;;;14.88;100.00
61697;BME280;47610;52.252;20.922;2023-09-30T21:12:04;100928.90;;;14.81;100.00
61697;BME280;47610;52.252;20.922;2023-09-30T21:17:07;100930.03;;;14.73;100.00
61697;BME280;47610;52.252;20.922;2023-09-30T21:22:10;100936.64;;;14.65;100.00
61697;BME280;47610;52.252;20.922;2023-09-30T21:27:13;100946.18;;;14.57;100.00
61697;BME280;47610;52.252;20.922;2023-09-30T21:32:16;100945.89;;;14.48;100.00
61697;BME280;47610;52.252;20.922;2023-09-30T21:37:19;100956.51;;;14.42;100.00
61697;BME280;47610;52.252;20.922;2023-09-30T21:42:22;100963.70;;;14.34;100.00
61697;BME280;47610;52.252;20.922;2023-09-30T21:47:25;100961.71;;;14.25;100.00
61697;BME280;47610;52.252;20.922;2023-09-30T21:52:29;100960.44;;;14.15;100.00
61697;BME280;47610;52.252;20.922;2023-09-30T21:57:32;100952.48;;;14.06;100.00
61697;BME280;47610;52.252;20.922;2023-09-30T22:02:35;100948.41;;;13.99;100.00
61697;BME280;47610;52.252;20.922;2023-09-30T22:07:39;100950.23;;;13.98;100.00
61697;BME280;47610;52.252;20.922;2023-09-30T22:12:42;100949.64;;;13.94;100.00
61697;BME280;47610;52.252;20.922;2023-09-30T22:17:45;100948.13;;;13.86;100.00
61697;BME280;47610;52.252;20.922;2023-09-30T22:22:48;100939.98;;;13.78;100.00
61697;BME280;47610;52.252;20.922;2023-09-30T22:27:51;100938.45;;;13.74;100.00
61697;BME280;47610;52.252;20.922;2023-09-30T22:32:55;100941.46;;;13.67;100.00
61697;BME280;47610;52.252;20.922;2023-09-30T22:37:58;100939.66;;;13.61;100.00
61697;BME280;47610;52.252;20.922;2023-09-30T22:43:01;100941.50;;;13.55;100.00
61697;BME280;47610;52.252;20.922;2023-09-30T22:48:06;100944.34;;;13.50;100.00
61697;BME280;47610;52.252;20.922;2023-09-30T22:53:09;100948.08;;;13.43;100.00
61697;BME280;47610;52.252;20.922;2023-09-30T22:58:12;100948.42;;;13.39;100.00
61697;BME280;47610;52.252;20.922;2023-09-30T23:03:15;100958.00;;;13.32;100.00
61697;BME280;47610;52.252;20.922;2023-09-30T23:08:18;100959.42;;;13.27;100.00
61697;BME280;47610;52.252;20.922;2023-09-30T23:13:21;100958.98;;;13.22;100.00
61697;BME280;47610;52.252;20.922;2023-09-30T23:18:24;100956.95;;;13.16;100.00
61697;BME280;47610;52.252;20.922;2023-09-30T23:23:27;100955.30;;;13.07;100.00
61697;BME280;47610;52.252;20.922;2023-09-30T23:28:31;100959.89;;;13.05;100.00
61697;BME280;47610;52.252;20.922;2023-09-30T23:33:34;100963.77;;;13.00;100.00
61697;BME280;47610;52.252;20.922;2023-09-30T23:38:37;100971.40;;;12.95;100.00
61697;BME280;47610;52.252;20.922;2023-09-30T23:43:41;100970.52;;;12.90;100.00
61697;BME280;47610;52.252;20.922;2023-09-30T23:48:44;100964.71;;;12.87;100.00
61697;BME280;47610;52.252;20.922;2023-09-30T23:53:47;100962.73;;;12.81;100.00
61697;BME280;47610;52.252;20.922;2023-09-30T23:58:50;100967.92;;;12.75;100.00
